Terminal Aerodrome Forecast
Issued by NWS Wilmington, NC

Home | Current Version | Previous Version | Text Only | Print | Product List | Glossary On
Versions: 1 2 3 4 5 6 7 8 9 10 11 12 13
000
FTUS42 KILM 230538
TAFMYR
TAF
KMYR 230538Z 2306/2406 21005KT P6SM SCT250
     FM231100 25006KT P6SM SCT040 SCT250
     FM231600 20011KT P6SM SCT045 SCT250 PROB30 2318/2321 P6SM TS
      SCT025 BKN045CB
     FM240400 23004KT P6SM SCT250
      AMD LTD TO CLD VIS AND WIND TIL 231100=

USA.gov is the U.S. government's official web portal to all federal, state and local government web resources and services.